Time;durP1;ratioP1;P1;durP2;ratioP2;P2;SDS_P1;SDS_P2;PMS_P1;PMS_P2;Temp;Humidity;BMP_temperature;BMP_pressure;BME280_temperature;BME280_humidity;BME280_pressure;Samples;Min_cycle;Max_cycle;Signal;HPM_P1;HPM_P2
2023/07/20 00:01:31;;;;;;;;;;;;;;;28.29;36.57;100143.34;5077279;28;1125;-13
2023/07/20 00:03:56;;;;;;;;;;;;;;;28.26;36.36;100133.75;5090498;28;1131;-13
2023/07/20 00:06:22;;;;;;;;;;;;;;;28.23;36.40;100132.31;5083614;28;1129;-14
2023/07/20 00:08:48;;;;;;;;;;;;;;;28.24;36.49;100120.44;5083911;28;1976;-13
2023/07/20 00:11:13;;;;;;;;;;;;;;;28.17;36.05;100130.44;5076766;28;1091;-13
2023/07/20 00:13:39;;;;;;;;;;;;;;;28.33;36.43;100129.25;5077076;28;1182;-13
2023/07/20 00:16:05;;;;;;;;;;;;;;;28.29;36.46;100138.78;5089899;28;2388;-14
2023/07/20 00:18:30;;;;;;;;;;;;;;;28.24;36.41;100130.47;5089311;28;990;-14
2023/07/20 00:20:56;;;;;;;;;;;;;;;28.29;36.49;100132.53;5096449;28;1154;-14
2023/07/20 00:23:22;;;;;;;;;;;;;;;28.31;36.08;100128.56;5083997;28;1133;-13
2023/07/20 00:25:48;;;;;;;;;;;;;;;28.26;36.17;100141.88;5096074;28;1095;-13
2023/07/20 00:28:14;;;;;;;;;;;;;;;28.30;36.39;100131.50;5083841;28;1985;-13
2023/07/20 00:30:41;;;;;;;;;;;;;;;28.24;36.37;100147.50;5088692;28;1114;-13
2023/07/20 00:33:10;;;;;;;;;;;;;;;28.16;35.90;100139.56;5079812;28;874;-14
2023/07/20 00:35:35;;;;;;;;;;;;;;;28.29;36.64;100143.34;5090175;28;1190;-14
2023/07/20 00:38:02;;;;;;;;;;;;;;;28.24;36.04;100139.38;5089695;28;1183;-13
2023/07/20 00:40:27;;;;;;;;;;;;;;;28.18;35.78;100133.97;5076558;28;1130;-13
2023/07/20 00:42:53;;;;;;;;;;;;;;;28.24;36.45;100125.06;5076614;28;1015;-13
2023/07/20 00:45:22;;;;;;;;;;;;;;;28.21;36.12;100120.06;5094589;28;2260;-13
2023/07/20 00:47:48;;;;;;;;;;;;;;;28.27;35.99;100129.19;5075591;28;1898;-13
2023/07/20 00:50:13;;;;;;;;;;;;;;;28.30;36.02;100137.75;5089437;28;1003;-13
2023/07/20 00:52:39;;;;;;;;;;;;;;;28.35;35.59;100137.16;5074940;28;1128;-13
2023/07/20 00:55:06;;;;;;;;;;;;;;;28.22;36.07;100133.38;5089249;28;1146;-13
2023/07/20 00:57:31;;;;;;;;;;;;;;;28.22;36.59;100137.94;5071593;28;932;-13
2023/07/20 00:59:57;;;;;;;;;;;;;;;28.03;36.80;100140.38;5094838;28;1127;-13
2023/07/20 01:02:23;;;;;;;;;;;;;;;28.05;36.67;100134.78;5094109;28;1074;-13
2023/07/20 01:04:48;;;;;;;;;;;;;;;28.07;36.92;100130.00;5074593;28;1103;-14
2023/07/20 01:07:26;;;;;;;;;;;;;;;28.06;36.41;100133.75;5071966;28;1894;-13
2023/07/20 01:09:54;;;;;;;;;;;;;;;28.11;36.63;100129.38;5074951;28;1078;-13
2023/07/20 01:12:23;;;;;;;;;;;;;;;28.11;36.27;100126.69;5090260;28;1221;-14
2023/07/20 01:14:49;;;;;;;;;;;;;;;28.16;36.58;100122.53;5086372;28;1065;-13
2023/07/20 01:17:14;;;;;;;;;;;;;;;28.18;36.78;100124.00;5090832;28;2191;-13
2023/07/20 01:19:40;;;;;;;;;;;;;;;28.10;36.29;100118.78;5095689;28;1042;-13
2023/07/20 01:22:20;;;;;;;;;;;;;;;28.20;36.48;100119.22;5095741;28;1010;-14
2023/07/20 01:24:52;;;;;;;;;;;;;;;28.11;36.30;100125.88;5084706;28;1178;-13
2023/07/20 01:27:18;;;;;;;;;;;;;;;28.02;36.63;100141.44;5080117;28;1909;-14
2023/07/20 01:30:00;;;;;;;;;;;;;;;28.23;36.26;100142.28;5094774;28;1189;-13
2023/07/20 01:32:25;;;;;;;;;;;;;;;28.12;36.30;100157.25;5085914;28;862;-13
2023/07/20 01:34:52;;;;;;;;;;;;;;;28.12;36.23;100162.66;5088890;28;904;-13
2023/07/20 01:37:19;;;;;;;;;;;;;;;28.22;36.50;100162.28;5087047;28;1027;-13
2023/07/20 01:39:45;;;;;;;;;;;;;;;28.20;36.65;100167.91;5076929;28;1138;-13
2023/07/20 01:42:11;;;;;;;;;;;;;;;28.23;36.40;100207.19;5095736;28;1006;-13
2023/07/20 01:44:37;;;;;;;;;;;;;;;28.28;36.18;100230.97;5097767;28;1090;-13
2023/07/20 01:47:03;;;;;;;;;;;;;;;28.28;36.49;100239.06;5085917;28;2467;-13
2023/07/20 01:49:29;;;;;;;;;;;;;;;28.27;36.42;100256.31;5091705;28;1973;-13
2023/07/20 01:51:55;;;;;;;;;;;;;;;28.23;36.54;100237.78;5087243;28;1020;-14
2023/07/20 01:54:21;;;;;;;;;;;;;;;28.05;36.36;100232.94;5086139;28;1030;-13
2023/07/20 01:56:46;;;;;;;;;;;;;;;28.25;36.54;100248.41;5099873;28;891;-14
2023/07/20 01:59:12;;;;;;;;;;;;;;;28.22;36.63;100236.13;5084629;28;1043;-13
2023/07/20 02:01:38;;;;;;;;;;;;;;;28.08;36.05;100231.69;5091203;28;1202;-13
2023/07/20 02:04:05;;;;;;;;;;;;;;;28.14;36.64;100252.53;5078610;28;1173;-13
2023/07/20 02:06:30;;;;;;;;;;;;;;;28.09;36.45;100225.28;5092151;28;1185;-14
2023/07/20 02:08:56;;;;;;;;;;;;;;;28.19;36.36;100238.41;5091518;28;1902;-13
2023/07/20 02:11:22;;;;;;;;;;;;;;;28.18;36.69;100221.34;5098252;28;1234;-13
2023/07/20 02:13:47;;;;;;;;;;;;;;;28.16;36.55;100217.19;5086051;28;1152;-13
2023/07/20 02:16:13;;;;;;;;;;;;;;;28.16;36.60;100204.47;5099208;28;1867;-13
2023/07/20 02:18:38;;;;;;;;;;;;;;;28.17;36.61;100211.56;5097762;28;1165;-14
2023/07/20 02:21:04;;;;;;;;;;;;;;;28.04;36.43;100192.59;5081967;28;848;-13
2023/07/20 02:23:30;;;;;;;;;;;;;;;28.17;36.99;100191.81;5092596;28;1074;-13
2023/07/20 02:25:55;;;;;;;;;;;;;;;28.14;36.71;100194.91;5086139;28;987;-13
2023/07/20 02:28:21;;;;;;;;;;;;;;;28.04;36.30;100185.31;5097568;28;1977;-14
2023/07/20 02:30:47;;;;;;;;;;;;;;;28.11;36.78;100179.94;5085628;28;1077;-13
2023/07/20 02:33:12;;;;;;;;;;;;;;;27.97;36.86;100174.50;5085518;28;1035;-14
2023/07/20 02:35:38;;;;;;;;;;;;;;;28.11;36.70;100178.06;5079175;28;1277;-13
2023/07/20 02:38:04;;;;;;;;;;;;;;;28.17;36.73;100173.72;5090865;28;1122;-13
2023/07/20 02:40:29;;;;;;;;;;;;;;;28.14;36.52;100174.13;5097411;28;1201;-14
2023/07/20 02:42:55;;;;;;;;;;;;;;;28.15;36.68;100170.38;5085569;28;1078;-14
2023/07/20 02:45:20;;;;;;;;;;;;;;;28.14;37.10;100162.47;5082974;28;2365;-14
2023/07/20 02:47:46;;;;;;;;;;;;;;;28.08;36.23;100164.94;5078817;28;1980;-14
2023/07/20 02:50:13;;;;;;;;;;;;;;;28.20;36.52;100146.25;5092044;28;1188;-13
2023/07/20 02:52:39;;;;;;;;;;;;;;;28.17;36.52;100145.81;5092508;28;1008;-14
2023/07/20 02:55:05;;;;;;;;;;;;;;;27.82;36.77;100144.91;5085726;28;1031;-13
2023/07/20 02:57:31;;;;;;;;;;;;;;;28.10;36.69;100145.81;5085832;28;1101;-13
2023/07/20 02:59:56;;;;;;;;;;;;;;;27.99;36.92;100142.66;5084451;28;1252;-13
2023/07/20 03:02:22;;;;;;;;;;;;;;;27.97;36.59;100138.50;5097166;28;1179;-13
2023/07/20 03:04:47;;;;;;;;;;;;;;;28.16;36.81;100127.94;5090360;28;1145;-13
2023/07/20 03:07:13;;;;;;;;;;;;;;;28.04;37.06;100116.91;5076572;28;1193;-14
2023/07/20 03:09:39;;;;;;;;;;;;;;;27.93;36.52;100118.31;5090149;28;1906;-13
2023/07/20 03:12:05;;;;;;;;;;;;;;;28.08;36.60;100112.72;5096836;28;1527;-13
2023/07/20 03:14:30;;;;;;;;;;;;;;;27.98;37.36;100096.91;5096733;28;1201;-13
2023/07/20 03:16:57;;;;;;;;;;;;;;;28.10;37.00;100086.31;5090637;28;1805;-13
2023/07/20 03:19:22;;;;;;;;;;;;;;;28.08;36.66;100075.72;5098133;28;1296;-13
2023/07/20 03:21:48;;;;;;;;;;;;;;;28.02;36.58;100071.16;5083900;28;1039;-13
2023/07/20 03:24:14;;;;;;;;;;;;;;;28.13;36.34;100061.56;5090451;28;1313;-13
2023/07/20 03:26:39;;;;;;;;;;;;;;;28.20;36.41;100067.84;5097426;28;1110;-14
2023/07/20 03:29:06;;;;;;;;;;;;;;;28.24;36.31;100046.63;5097008;28;1914;-13
2023/07/20 03:31:32;;;;;;;;;;;;;;;27.89;35.51;100044.94;5089138;28;1229;-13
2023/07/20 03:33:58;;;;;;;;;;;;;;;28.02;37.38;100043.28;5089562;28;1157;-13
2023/07/20 03:36:24;;;;;;;;;;;;;;;28.09;38.96;100028.72;5083911;28;1214;-13
2023/07/20 03:38:50;;;;;;;;;;;;;;;28.11;37.93;100018.53;5095608;28;1023;-13
2023/07/20 03:41:16;;;;;;;;;;;;;;;28.20;38.28;100002.09;5078171;28;1177;-13
2023/07/20 03:43:41;;;;;;;;;;;;;;;28.10;37.75;99980.88;5075994;28;1225;-13
2023/07/20 03:46:07;;;;;;;;;;;;;;;28.26;37.24;99968.00;5080395;28;1734;-13
2023/07/20 03:48:33;;;;;;;;;;;;;;;28.25;38.29;99964.44;5095849;28;1977;-13
2023/07/20 03:51:00;;;;;;;;;;;;;;;28.44;38.42;99953.84;5097661;28;1236;-13
2023/07/20 03:53:26;;;;;;;;;;;;;;;28.43;39.48;99933.22;5097126;28;1198;-13
2023/07/20 03:55:52;;;;;;;;;;;;;;;27.99;37.03;99945.31;5078251;28;1102;-14
2023/07/20 03:58:18;;;;;;;;;;;;;;;28.44;37.41;99956.53;5089044;28;849;-14
2023/07/20 04:00:46;;;;;;;;;;;;;;;28.43;38.59;99963.81;5096165;28;1081;-13
2023/07/20 04:03:12;;;;;;;;;;;;;;;28.56;37.94;99981.06;5083296;28;1034;-13
2023/07/20 04:05:38;;;;;;;;;;;;;;;28.47;37.85;99989.41;5082507;28;1062;-13
2023/07/20 04:08:04;;;;;;;;;;;;;;;28.55;37.89;99985.66;5081129;28;1914;-13
2023/07/20 04:10:29;;;;;;;;;;;;;;;28.54;37.45;99991.28;5091158;28;1107;-14
2023/07/20 04:12:55;;;;;;;;;;;;;;;28.33;37.42;99995.88;5095432;28;1530;-13
2023/07/20 04:15:20;;;;;;;;;;;;;;;28.57;36.64;99994.41;5081980;28;1083;-13
2023/07/20 04:17:46;;;;;;;;;;;;;;;28.51;37.54;99997.13;5075521;28;2290;-13
2023/07/20 04:20:12;;;;;;;;;;;;;;;28.64;36.51;99991.69;5090462;28;1052;-14
2023/07/20 04:22:37;;;;;;;;;;;;;;;28.71;36.99;99992.47;5076726;28;859;-13
2023/07/20 04:25:04;;;;;;;;;;;;;;;28.75;36.61;99995.59;5081594;28;1123;-13
2023/07/20 04:27:30;;;;;;;;;;;;;;;28.59;36.85;100007.72;5095165;28;1922;-13
2023/07/20 04:29:56;;;;;;;;;;;;;;;28.65;37.31;100020.38;5081720;28;1215;-13
2023/07/20 04:32:22;;;;;;;;;;;;;;;28.59;37.43;100018.53;5095629;28;1325;-14
2023/07/20 04:34:48;;;;;;;;;;;;;;;28.59;37.70;100024.75;5088553;28;1267;-14
2023/07/20 04:37:13;;;;;;;;;;;;;;;28.51;38.06;100043.91;5075304;28;1099;-13
2023/07/20 04:39:39;;;;;;;;;;;;;;;28.64;37.35;100042.25;5076342;28;1015;-13
2023/07/20 04:42:09;;;;;;;;;;;;;;;28.59;37.63;100051.81;5074074;28;1089;-13
2023/07/20 04:44:34;;;;;;;;;;;;;;;28.60;37.59;100055.34;5094654;28;1262;-13
2023/07/20 04:47:00;;;;;;;;;;;;;;;28.54;37.53;100062.47;5087218;28;1955;-13
2023/07/20 04:49:26;;;;;;;;;;;;;;;28.61;37.28;100059.75;5080828;28;1983;-13
2023/07/20 04:51:51;;;;;;;;;;;;;;;28.42;37.59;100056.84;5094980;28;1142;-13
2023/07/20 04:54:18;;;;;;;;;;;;;;;28.71;37.07;100056.59;5094492;28;1030;-13
2023/07/20 04:56:45;;;;;;;;;;;;;;;28.52;37.01;100056.41;5087429;28;1254;-13
2023/07/20 04:59:12;;;;;;;;;;;;;;;28.55;36.30;100049.75;5087632;28;1216;-13
2023/07/20 05:01:37;;;;;;;;;;;;;;;28.51;35.54;100054.72;5086164;28;1373;-13
2023/07/20 05:04:03;;;;;;;;;;;;;;;28.58;36.10;100063.69;5094564;28;1300;-13
2023/07/20 05:06:29;;;;;;;;;;;;;;;28.63;35.63;100086.59;5094552;28;1247;-13
2023/07/20 05:08:55;;;;;;;;;;;;;;;28.73;35.69;100098.66;5094326;28;1989;-13
2023/07/20 05:11:20;;;;;;;;;;;;;;;28.47;36.26;100132.81;5094170;28;1213;-13
2023/07/20 05:13:46;;;;;;;;;;;;;;;28.64;36.18;100140.50;5077718;28;1082;-13
2023/07/20 05:16:12;;;;;;;;;;;;;;;28.64;36.31;100108.03;5075190;28;1804;-13
2023/07/20 05:18:37;;;;;;;;;;;;;;;28.63;35.40;100109.06;5094399;28;1312;-13
2023/07/20 05:21:03;;;;;;;;;;;;;;;27.61;36.60;99998.06;5093320;28;1085;-13
2023/07/20 05:23:28;;;;;;;;;;;;;;;28.44;36.02;100111.59;5086468;28;1081;-14
2023/07/20 05:25:57;;;;;;;;;;;;;;;28.54;38.61;100123.84;5065545;28;1340;-35
2023/07/20 05:28:23;;;;;;;;;;;;;;;28.90;35.76;100125.28;5079526;28;1985;-20
2023/07/20 05:30:51;;;;;;;;;;;;;;;28.89;35.11;100120.06;5084491;28;1177;-20
2023/07/20 05:33:17;;;;;;;;;;;;;;;28.70;34.90;100115.31;5087751;28;1071;-21
2023/07/20 05:35:43;;;;;;;;;;;;;;;28.82;35.44;100122.78;5075635;28;1287;-21
2023/07/20 05:38:08;;;;;;;;;;;;;;;28.52;35.48;100115.09;5075291;28;1249;-21
2023/07/20 05:40:36;;;;;;;;;;;;;;;28.84;34.59;100121.53;5081853;28;1331;-20
2023/07/20 05:43:03;;;;;;;;;;;;;;;29.04;34.62;100120.72;5081978;28;1390;-21
2023/07/20 05:45:28;;;;;;;;;;;;;;;29.04;34.17;100119.88;5075345;28;1848;-21
2023/07/20 05:47:54;;;;;;;;;;;;;;;28.75;34.61;100122.78;5078206;28;1942;-21
2023/07/20 05:50:19;;;;;;;;;;;;;;;28.79;34.96;100131.34;5096160;28;982;-21
2023/07/20 05:52:45;;;;;;;;;;;;;;;28.72;34.77;100142.16;5092086;28;1041;-21
2023/07/20 05:55:11;;;;;;;;;;;;;;;28.76;34.34;100129.06;5087672;28;1118;-21
2023/07/20 05:57:39;;;;;;;;;;;;;;;28.88;34.58;100129.25;5083294;28;1529;-21
2023/07/20 06:00:05;;;;;;;;;;;;;;;28.74;34.48;100129.25;5080675;28;1249;-21
2023/07/20 06:02:37;;;;;;;;;;;;;;;28.91;35.28;100129.63;5090559;28;992;-21
2023/07/20 06:05:03;;;;;;;;;;;;;;;29.01;35.69;100139.25;5095678;28;1359;-23
2023/07/20 06:07:29;;;;;;;;;;;;;;;29.02;34.96;100133.63;5089229;28;1914;-24
2023/07/20 06:09:54;;;;;;;;;;;;;;;29.14;34.58;100150.06;5075932;28;1311;-22
2023/07/20 06:12:20;;;;;;;;;;;;;;;28.95;35.24;100151.72;5076228;28;1253;-23
2023/07/20 06:14:46;;;;;;;;;;;;;;;29.00;34.59;100151.94;5087519;28;1320;-22
2023/07/20 06:17:12;;;;;;;;;;;;;;;29.01;35.18;100153.59;5076238;28;1261;-22
2023/07/20 06:19:37;;;;;;;;;;;;;;;28.81;35.84;100161.75;5084162;28;1142;-23
2023/07/20 06:22:03;;;;;;;;;;;;;;;28.74;36.45;100167.16;5077796;28;1144;-22
2023/07/20 06:24:28;;;;;;;;;;;;;;;28.61;36.85;100170.69;5092234;28;913;-23
2023/07/20 06:26:54;;;;;;;;;;;;;;;28.79;35.91;100174.63;5089247;28;1281;-23
2023/07/20 06:29:20;;;;;;;;;;;;;;;28.75;36.38;100178.78;5085615;28;1971;-22
2023/07/20 06:31:45;;;;;;;;;;;;;;;28.70;36.78;100169.44;5079096;28;1316;-17
2023/07/20 06:34:11;;;;;;;;;;;;;;;28.62;36.66;100169.66;5079376;28;1256;-17
2023/07/20 06:36:36;;;;;;;;;;;;;;;28.79;36.41;100175.47;5079821;28;1371;-17
2023/07/20 06:39:02;;;;;;;;;;;;;;;28.46;37.26;100179.00;5079475;28;1308;-18
2023/07/20 06:41:28;;;;;;;;;;;;;;;29.02;36.09;100176.09;5096883;28;1304;-18
2023/07/20 06:43:57;;;;;;;;;;;;;;;29.31;35.38;100179.41;5096513;28;1165;-18
2023/07/20 06:46:24;;;;;;;;;;;;;;;29.42;34.58;100173.34;5080765;28;1186;-18
2023/07/20 06:48:50;;;;;;;;;;;;;;;29.48;34.66;100174.34;5098129;28;1905;-17
2023/07/20 06:51:15;;;;;;;;;;;;;;;29.42;34.58;100170.63;5079127;28;1607;-17
2023/07/20 06:53:41;;;;;;;;;;;;;;;29.39;34.57;100159.38;5083689;28;1126;-17
2023/07/20 06:56:06;;;;;;;;;;;;;;;29.16;34.73;100152.56;5083523;28;1063;-18
2023/07/20 06:58:33;;;;;;;;;;;;;;;29.34;34.77;100138.34;5081283;28;1292;-18
2023/07/20 07:00:58;;;;;;;;;;;;;;;29.45;34.65;100118.72;5094424;28;1047;-17
2023/07/20 07:03:24;;;;;;;;;;;;;;;29.54;34.36;100115.75;5093320;28;1336;-17
2023/07/20 07:05:50;;;;;;;;;;;;;;;29.46;34.36;100103.28;5091322;28;1299;-18
2023/07/20 07:08:16;;;;;;;;;;;;;;;29.37;34.67;100091.84;5077793;28;1991;-17
2023/07/20 07:10:42;;;;;;;;;;;;;;;29.61;34.30;100084.09;5080487;28;1237;-17
2023/07/20 07:13:07;;;;;;;;;;;;;;;29.57;34.00;100082.81;5093086;28;1228;-18
2023/07/20 07:15:33;;;;;;;;;;;;;;;29.60;33.64;100095.94;5079077;28;1388;-17
2023/07/20 07:17:59;;;;;;;;;;;;;;;29.60;33.87;100101.38;5077825;28;1323;-18
2023/07/20 07:20:26;;;;;;;;;;;;;;;29.61;33.85;100099.50;5089618;28;1417;-17
2023/07/20 07:22:52;;;;;;;;;;;;;;;29.57;33.62;100107.19;5091194;28;1316;-18
2023/07/20 07:25:18;;;;;;;;;;;;;;;29.37;34.33;100120.81;5097243;28;1102;-17
2023/07/20 07:27:43;;;;;;;;;;;;;;;29.23;35.28;100123.56;5083565;28;1914;-17
2023/07/20 07:30:09;;;;;;;;;;;;;;;29.32;35.35;100140.44;5098135;28;1190;-17
2023/07/20 07:32:35;;;;;;;;;;;;;;;29.13;35.75;100131.31;5096119;28;1105;-18
2023/07/20 07:35:00;;;;;;;;;;;;;;;29.18;35.70;100143.16;5085318;28;1103;-17
2023/07/20 07:37:26;;;;;;;;;;;;;;;29.21;35.62;100141.94;5085150;28;1091;-17
2023/07/20 07:39:52;;;;;;;;;;;;;;;29.10;36.49;100135.28;5098135;28;1108;-18
2023/07/20 07:42:18;;;;;;;;;;;;;;;29.06;36.28;100137.56;5081803;28;1139;-17
2023/07/20 07:44:44;;;;;;;;;;;;;;;29.21;36.43;100139.22;5084426;28;1364;-17
2023/07/20 07:47:09;;;;;;;;;;;;;;;29.29;36.36;100138.16;5082739;28;1210;-17
2023/07/20 07:49:35;;;;;;;;;;;;;;;29.11;37.01;100122.56;5091008;28;1910;-18
2023/07/20 07:52:02;;;;;;;;;;;;;;;29.18;37.67;100137.75;5098012;28;1092;-17
2023/07/20 07:54:28;;;;;;;;;;;;;;;29.13;37.57;100137.53;5095937;28;1091;-17
2023/07/20 07:56:54;;;;;;;;;;;;;;;29.28;36.36;100126.47;5084376;28;1186;-18
2023/07/20 07:59:19;;;;;;;;;;;;;;;29.38;36.42;100131.44;5085032;28;1183;-17
2023/07/20 08:01:45;;;;;;;;;;;;;;;29.50;35.17;100128.06;5093986;28;1095;-18
2023/07/20 08:04:10;;;;;;;;;;;;;;;29.59;35.56;100129.53;5084472;28;1094;-17
2023/07/20 08:06:36;;;;;;;;;;;;;;;28.29;32.75;100119.88;5077536;28;1063;-18
2023/07/20 08:09:02;;;;;;;;;;;;;;;29.13;32.36;100134.03;5077329;28;1906;-17
2023/07/20 08:11:27;;;;;;;;;;;;;;;29.37;34.03;100121.66;5093736;28;1165;-17
2023/07/20 08:13:53;;;;;;;;;;;;;;;29.51;34.29;100127.03;5093079;28;1288;-17
2023/07/20 08:16:18;;;;;;;;;;;;;;;29.75;34.46;100133.63;5092891;28;1395;-18
2023/07/20 08:18:45;;;;;;;;;;;;;;;29.84;34.54;100119.81;5079104;28;1258;-17
2023/07/20 08:21:11;;;;;;;;;;;;;;;29.72;34.81;100122.38;5090462;28;1083;-18
2023/07/20 08:23:36;;;;;;;;;;;;;;;29.78;34.76;100130.47;5076985;28;1371;-18
2023/07/20 08:26:02;;;;;;;;;;;;;;;29.77;35.07;100123.41;5084815;28;1023;-18
2023/07/20 08:28:29;;;;;;;;;;;;;;;29.86;35.25;100120.44;5095949;28;1977;-18
2023/07/20 08:30:54;;;;;;;;;;;;;;;29.74;35.77;100126.53;5096933;28;1164;-18
2023/07/20 08:33:20;;;;;;;;;;;;;;;29.73;36.07;100115.91;5089496;28;1162;-18
2023/07/20 08:35:45;;;;;;;;;;;;;;;29.67;36.09;100113.03;5089651;28;1045;-18
2023/07/20 08:38:11;;;;;;;;;;;;;;;29.72;35.31;100115.06;5077141;28;1217;-18
2023/07/20 08:40:46;;;;;;;;;;;;;;;29.46;35.86;100122.25;5076802;28;991;-18
2023/07/20 08:43:11;;;;;;;;;;;;;;;29.41;36.09;100122.06;5076934;28;1131;-18
2023/07/20 08:45:38;;;;;;;;;;;;;;;29.35;35.55;100118.31;5081990;28;1059;-18
2023/07/20 08:48:04;;;;;;;;;;;;;;;29.41;35.67;100113.94;5085356;28;1898;-18
2023/07/20 08:50:30;;;;;;;;;;;;;;;29.40;36.74;100112.25;5086406;28;1189;-18
2023/07/20 08:52:57;;;;;;;;;;;;;;;29.10;37.30;100119.03;5089832;28;1027;-17
2023/07/20 08:55:23;;;;;;;;;;;;;;;29.38;36.07;100104.34;5085964;28;1031;-17
2023/07/20 08:57:49;;;;;;;;;;;;;;;29.39;35.22;100103.31;5080062;28;1137;-17
2023/07/20 09:00:15;;;;;;;;;;;;;;;29.54;35.83;100097.63;5081791;28;1420;-18
2023/07/20 09:02:41;;;;;;;;;;;;;;;29.46;34.59;100101.41;5084615;28;1339;-17
2023/07/20 09:05:07;;;;;;;;;;;;;;;29.39;35.80;100097.06;5084528;28;1079;-18
2023/07/20 09:07:33;;;;;;;;;;;;;;;29.38;35.90;100092.69;5075956;28;1897;-18
2023/07/20 09:09:58;;;;;;;;;;;;;;;29.38;36.42;100098.94;5075957;28;1305;-17
2023/07/20 09:12:24;;;;;;;;;;;;;;;29.57;35.80;100094.50;5086535;28;1296;-18
2023/07/20 09:14:50;;;;;;;;;;;;;;;29.63;35.12;100100.13;5095182;28;1030;-17
2023/07/20 09:17:15;;;;;;;;;;;;;;;29.34;36.05;100089.59;5084129;28;1126;-18
2023/07/20 09:23:06;;;;;;;;;;;;;;;29.30;35.90;100085.63;5095817;28;1046;-17
2023/07/20 09:25:32;;;;;;;;;;;;;;;29.32;35.99;100078.13;5096259;28;1003;-17
2023/07/20 09:27:59;;;;;;;;;;;;;;;29.43;35.42;100080.16;5075478;28;1913;-17
2023/07/20 09:30:24;;;;;;;;;;;;;;;29.39;36.03;100073.53;5074915;28;1459;-17
2023/07/20 09:32:53;;;;;;;;;;;;;;;29.35;35.71;100077.69;5084712;28;1454;-17
2023/07/20 09:35:21;;;;;;;;;;;;;;;29.28;36.25;100079.59;5095073;28;1115;-18
2023/07/20 09:37:48;;;;;;;;;;;;;;;29.40;36.32;100072.47;5075482;28;869;-17
2023/07/20 09:40:14;;;;;;;;;;;;;;;29.26;36.33;100073.56;5076055;28;1018;-17
2023/07/20 09:42:40;;;;;;;;;;;;;;;29.40;35.98;100058.91;5074763;28;1099;-17
2023/07/20 09:45:07;;;;;;;;;;;;;;;29.33;35.94;100067.06;5074983;28;1293;-18
2023/07/20 09:47:33;;;;;;;;;;;;;;;29.43;36.11;100055.78;5083083;28;1906;-18
2023/07/20 09:50:02;;;;;;;;;;;;;;;29.30;36.33;100059.38;5093216;28;1309;-17
2023/07/20 09:52:27;;;;;;;;;;;;;;;29.53;35.93;100051.78;5096000;28;1094;-17
2023/07/20 09:54:52;;;;;;;;;;;;;;;29.32;36.45;100057.28;5094773;28;1035;-18
2023/07/20 09:57:18;;;;;;;;;;;;;;;29.43;35.84;100041.38;5089199;28;1328;-17
2023/07/20 09:59:43;;;;;;;;;;;;;;;29.60;35.73;100054.47;5075737;28;1484;-18
2023/07/20 10:02:19;;;;;;;;;;;;;;;29.82;35.85;100046.84;5081738;28;1246;-18
2023/07/20 10:04:45;;;;;;;;;;;;;;;29.95;35.15;100016.06;5092795;28;919;-17
2023/07/20 10:07:11;;;;;;;;;;;;;;;30.04;34.45;100041.06;5097886;28;1098;-17
2023/07/20 10:09:37;;;;;;;;;;;;;;;30.11;33.83;100046.44;5097708;28;1973;-17
2023/07/20 10:12:03;;;;;;;;;;;;;;;29.67;35.11;100036.28;5083993;28;1011;-17
2023/07/20 10:14:30;;;;;;;;;;;;;;;29.37;36.24;100032.25;5080034;28;1110;-17
2023/07/20 10:16:58;;;;;;;;;;;;;;;29.29;35.89;100029.78;5094871;28;1202;-17
2023/07/20 10:19:29;;;;;;;;;;;;;;;29.40;36.11;100026.41;5089832;28;1126;-17
2023/07/20 10:21:56;;;;;;;;;;;;;;;29.23;35.96;100026.06;5088369;28;1071;-18
2023/07/20 10:24:22;;;;;;;;;;;;;;;29.19;36.51;100017.56;5085542;28;1395;-17
2023/07/20 10:26:48;;;;;;;;;;;;;;;29.26;36.12;100009.38;5090449;28;1323;-17
2023/07/20 10:29:13;;;;;;;;;;;;;;;29.19;36.70;100005.88;5061595;28;1910;-17
2023/07/20 10:31:39;;;;;;;;;;;;;;;29.20;36.60;100011.09;5061747;28;1373;-17
2023/07/20 10:34:04;;;;;;;;;;;;;;;28.96;37.70;100008.00;5076783;28;1284;-17
2023/07/20 10:36:30;;;;;;;;;;;;;;;29.28;36.70;100010.00;5059786;28;1043;-17
2023/07/20 10:38:57;;;;;;;;;;;;;;;29.33;36.57;99987.66;5075780;28;995;-17
2023/07/20 10:41:28;;;;;;;;;;;;;;;29.44;35.48;99989.72;5079715;28;1122;-18
2023/07/20 10:44:03;;;;;;;;;;;;;;;29.33;35.84;99993.09;5078828;28;1193;-17
2023/07/20 10:46:35;;;;;;;;;;;;;;;29.42;34.23;99989.09;5072153;28;1090;-17
2023/07/20 10:49:04;;;;;;;;;;;;;;;29.23;35.45;99985.44;5078636;28;1906;-17
2023/07/20 10:51:29;;;;;;;;;;;;;;;29.20;35.68;99996.69;5078162;28;1392;-18
2023/07/20 10:53:58;;;;;;;;;;;;;;;29.40;35.94;99988.47;5079233;28;1280;-18
2023/07/20 10:56:24;;;;;;;;;;;;;;;29.54;35.39;99993.81;5078584;28;1378;-18
2023/07/20 10:58:49;;;;;;;;;;;;;;;29.67;37.02;99987.50;5061195;28;1328;-18
2023/07/20 11:01:18;;;;;;;;;;;;;;;29.57;36.06;99980.66;5077536;28;1308;-18
2023/07/20 11:03:50;;;;;;;;;;;;;;;29.54;35.78;99969.44;5079033;28;1296;-18
2023/07/20 11:06:27;;;;;;;;;;;;;;;29.56;35.44;99975.47;5078215;28;1398;-17
2023/07/20 11:09:15;;;;;;;;;;;;;;;29.50;34.53;99971.75;5078472;28;1897;-18
2023/07/20 11:11:41;;;;;;;;;;;;;;;29.33;36.11;99960.56;5078718;28;1309;-18
2023/07/20 11:14:07;;;;;;;;;;;;;;;29.45;35.69;99966.13;5076075;28;1174;-18
2023/07/20 11:16:36;;;;;;;;;;;;;;;29.57;36.23;99961.69;5059947;28;1276;-18
2023/07/20 11:19:02;;;;;;;;;;;;;;;29.58;35.23;99955.22;5078325;28;1548;-18
2023/07/20 11:21:28;;;;;;;;;;;;;;;29.63;36.26;99951.06;5077760;28;1406;-17
2023/07/20 11:23:53;;;;;;;;;;;;;;;29.61;36.18;99951.28;5060658;28;1423;-17
2023/07/20 11:26:19;;;;;;;;;;;;;;;29.68;36.25;99946.63;5078248;28;1201;-18
2023/07/20 11:28:51;;;;;;;;;;;;;;;29.80;37.54;99941.31;5088121;28;1963;-18
2023/07/20 11:31:20;;;;;;;;;;;;;;;29.67;36.79;99939.56;5077721;28;1441;-18
2023/07/20 11:33:46;;;;;;;;;;;;;;;29.60;35.29;99900.00;5078130;28;1391;-17
2023/07/20 11:36:11;;;;;;;;;;;;;;;29.66;35.62;99921.63;5077115;28;1475;-17
2023/07/20 11:38:38;;;;;;;;;;;;;;;29.66;36.38;99921.63;5089424;28;1335;-18
2023/07/20 11:41:03;;;;;;;;;;;;;;;29.65;35.79;99911.84;5080112;28;1394;-18
2023/07/20 11:43:29;;;;;;;;;;;;;;;29.61;36.36;99913.34;5076649;28;1459;-18
2023/07/20 11:45:54;;;;;;;;;;;;;;;29.53;35.52;99913.59;5078253;28;1367;-17
2023/07/20 11:48:20;;;;;;;;;;;;;;;29.82;35.78;99905.88;5094936;28;1898;-18
2023/07/20 11:50:46;;;;;;;;;;;;;;;29.54;35.40;99898.97;5089636;28;1394;-18
2023/07/20 11:53:12;;;;;;;;;;;;;;;29.68;35.90;99903.25;5078874;28;1465;-18
2023/07/20 11:55:38;;;;;;;;;;;;;;;29.73;35.87;99902.59;5078159;28;1367;-18
2023/07/20 11:58:04;;;;;;;;;;;;;;;29.51;37.09;99902.94;5076223;28;1360;-17
2023/07/20 12:00:29;;;;;;;;;;;;;;;29.33;36.86;99909.94;5077168;28;1308;-18
2023/07/20 12:02:55;;;;;;;;;;;;;;;29.58;36.34;99903.72;5090844;28;1309;-17
2023/07/20 12:05:22;;;;;;;;;;;;;;;29.61;36.44;99907.94;5077673;28;1444;-18
2023/07/20 12:07:49;;;;;;;;;;;;;;;29.57;36.28;99906.66;5082814;28;1898;-18
2023/07/20 12:10:15;;;;;;;;;;;;;;;29.66;37.02;99908.06;5084287;28;1261;-18
2023/07/20 12:12:41;;;;;;;;;;;;;;;29.74;36.13;99911.56;5076962;28;1260;-17
2023/07/20 12:15:17;;;;;;;;;;;;;;;29.77;36.82;99911.13;5077113;28;1221;-18
2023/07/20 12:17:46;;;;;;;;;;;;;;;29.62;36.28;99911.44;5077433;28;1321;-18
2023/07/20 12:20:11;;;;;;;;;;;;;;;29.47;38.10;99926.13;5077192;28;1300;-18
2023/07/20 12:22:43;;;;;;;;;;;;;;;23.80;45.92;99923.72;5077222;28;1324;-18
2023/07/20 12:25:08;;;;;;;;;;;;;;;22.56;51.49;99909.94;5077193;28;1261;-17
2023/07/20 12:27:41;;;;;;;;;;;;;;;22.27;52.95;99902.31;5085203;28;1155;-17
2023/07/20 12:30:07;;;;;;;;;;;;;;;22.32;54.68;99895.63;5080996;28;1152;-17
2023/07/20 12:32:33;;;;;;;;;;;;;;;22.27;55.50;99891.59;5077015;28;1458;-17
2023/07/20 12:35:00;;;;;;;;;;;;;;;22.14;55.95;99899.31;5076605;28;1457;-17
2023/07/20 12:37:26;;;;;;;;;;;;;;;22.04;56.67;99898.69;5076687;28;1367;-17
2023/07/20 12:39:52;;;;;;;;;;;;;;;22.50;57.85;99895.41;5089301;28;1429;-17
2023/07/20 12:42:17;;;;;;;;;;;;;;;25.94;46.46;99891.81;5076781;28;1284;-17
2023/07/20 12:44:43;;;;;;;;;;;;;;;23.12;52.89;99877.69;5076826;28;1313;-17
2023/07/20 12:47:08;;;;;;;;;;;;;;;21.89;55.67;99891.31;5081591;28;1367;-18
2023/07/20 12:49:33;;;;;;;;;;;;;;;24.41;50.91;99900.47;5091073;28;1914;-17